Time;durP1;ratioP1;P1;durP2;ratioP2;P2;SDS_P1;SDS_P2;PMS_P1;PMS_P2;Temp;Humidity;BMP_temperature;BMP_pressure;BME280_temperature;BME280_humidity;BME280_pressure;Samples;Min_cycle;Max_cycle;Signal;HPM_P1;HPM_P2
2021/09/06 00:00:13;;;;;;;8.53;7.20;;;17.20;93.70;;;;;;6045930;29;20485;-61
2021/09/06 00:03:16;;;;;;;7.60;6.90;;;17.20;93.90;;;;;;6049618;29;20489;-61
2021/09/06 00:06:21;;;;;;;8.27;7.33;;;17.20;93.90;;;;;;6046650;29;20983;-61
2021/09/06 00:09:24;;;;;;;9.23;7.17;;;17.10;94.10;;;;;;6048040;29;20471;-61
2021/09/06 00:12:27;;;;;;;7.80;7.00;;;17.00;94.20;;;;;;6046550;29;20510;-60
2021/09/06 00:15:30;;;;;;;7.27;6.57;;;17.00;94.40;;;;;;6049183;29;20483;-61
2021/09/06 00:18:34;;;;;;;7.77;7.00;;;17.00;94.50;;;;;;6049090;29;20479;-60
2021/09/06 00:21:38;;;;;;;7.27;6.63;;;17.00;94.60;;;;;;6050591;29;20485;-61
2021/09/06 00:24:41;;;;;;;7.20;6.60;;;17.00;94.60;;;;;;6053477;29;20496;-61
2021/09/06 00:27:44;;;;;;;6.73;6.13;;;17.00;94.70;;;;;;6045883;29;20813;-61
2021/09/06 00:30:48;;;;;;;8.17;7.40;;;17.00;94.60;;;;;;6050312;29;20489;-61
2021/09/06 00:33:51;;;;;;;7.13;6.43;;;17.00;94.70;;;;;;6048855;29;20486;-61
2021/09/06 00:36:56;;;;;;;7.70;6.60;;;17.00;94.90;;;;;;6045999;29;20487;-61
2021/09/06 00:39:59;;;;;;;8.20;7.40;;;16.90;94.90;;;;;;6040683;29;20474;-61
2021/09/06 00:43:02;;;;;;;6.90;6.30;;;16.90;94.90;;;;;;6037115;29;20498;-61
2021/09/06 00:46:05;;;;;;;8.00;7.30;;;16.80;95.10;;;;;;6046483;29;20481;-61
2021/09/06 00:49:08;;;;;;;7.67;6.97;;;16.80;95.20;;;;;;6045260;29;20471;-61
2021/09/06 00:52:13;;;;;;;7.30;6.60;;;16.70;95.20;;;;;;6041185;29;20483;-60
2021/09/06 00:55:18;;;;;;;8.53;7.63;;;16.70;95.30;;;;;;6043139;29;20470;-61
2021/09/06 00:58:23;;;;;;;7.87;7.10;;;16.70;95.40;;;;;;6049599;29;20485;-61
2021/09/06 01:01:26;;;;;;;8.30;7.10;;;16.60;95.40;;;;;;6050647;29;20470;-60
2021/09/06 01:04:30;;;;;;;8.07;6.97;;;16.60;95.40;;;;;;6057741;29;20553;-60
2021/09/06 01:07:34;;;;;;;8.00;7.20;;;16.50;95.40;;;;;;6039665;29;20447;-60
2021/09/06 01:10:37;;;;;;;7.57;6.87;;;16.50;95.60;;;;;;6046626;29;20447;-60
2021/09/06 01:13:41;;;;;;;10.00;8.03;;;16.40;96.00;;;;;;6043480;29;20490;-60
2021/09/06 01:16:44;;;;;;;7.70;7.00;;;16.40;96.20;;;;;;6057401;29;20453;-60
2021/09/06 01:19:47;;;;;;;7.53;6.83;;;16.40;96.30;;;;;;6058442;29;20462;-61
2021/09/06 01:22:52;;;;;;;7.60;6.90;;;16.40;96.40;;;;;;6058285;29;20474;-60
2021/09/06 01:25:56;;;;;;;8.63;7.80;;;16.40;96.30;;;;;;6057957;29;20769;-60
2021/09/06 01:29:00;;;;;;;8.03;6.93;;;16.40;96.10;;;;;;6058018;29;20980;-62
2021/09/06 01:32:05;;;;;;;9.10;8.30;;;16.50;96.20;;;;;;6061649;29;20478;-60
2021/09/06 01:35:09;;;;;;;8.50;7.70;;;16.50;96.50;;;;;;6062787;29;20478;-60
2021/09/06 01:38:13;;;;;;;7.70;6.97;;;16.50;96.20;;;;;;6062577;29;20489;-60
2021/09/06 01:41:17;;;;;;;13.27;8.47;;;16.50;96.20;;;;;;6062629;29;20473;-60
2021/09/06 01:44:21;;;;;;;7.03;6.37;;;16.50;96.30;;;;;;6058188;29;20492;-60
2021/09/06 01:47:24;;;;;;;7.30;6.60;;;16.50;96.30;;;;;;6062076;29;20478;-60
2021/09/06 01:50:27;;;;;;;7.97;7.07;;;16.50;96.40;;;;;;6062336;29;20481;-61
2021/09/06 01:53:30;;;;;;;7.60;6.80;;;16.50;96.50;;;;;;6062043;29;20474;-60
2021/09/06 01:56:35;;;;;;;8.53;7.47;;;16.50;96.40;;;;;;6062193;29;20477;-60
2021/09/06 01:59:38;;;;;;;7.60;6.70;;;16.50;96.30;;;;;;6062139;29;20506;-61
2021/09/06 02:02:41;;;;;;;7.93;7.13;;;16.50;96.30;;;;;;6045353;29;20501;-60
2021/09/06 02:05:45;;;;;;;8.17;6.70;;;16.40;96.40;;;;;;6038601;29;20825;-61
2021/09/06 02:08:48;;;;;;;9.40;8.00;;;16.40;96.30;;;;;;6038471;29;20996;-61
2021/09/06 02:11:52;;;;;;;7.70;6.90;;;16.30;96.50;;;;;;6038645;29;20501;-60
2021/09/06 02:14:55;;;;;;;8.43;7.57;;;16.30;96.60;;;;;;6038142;29;20487;-60
2021/09/06 02:17:58;;;;;;;8.07;7.27;;;16.30;96.70;;;;;;6038234;29;20478;-60
2021/09/06 02:21:01;;;;;;;9.87;8.87;;;16.30;96.70;;;;;;6038780;29;20479;-60
2021/09/06 02:24:05;;;;;;;9.93;8.93;;;16.30;96.80;;;;;;6038068;29;20487;-60
2021/09/06 02:27:10;;;;;;;7.77;7.07;;;16.30;96.80;;;;;;6038205;29;20479;-60
2021/09/06 02:30:14;;;;;;;9.37;8.03;;;16.30;97.00;;;;;;6038237;29;20475;-61
2021/09/06 02:33:17;;;;;;;8.50;7.63;;;16.30;97.10;;;;;;6037861;29;20578;-61
2021/09/06 02:36:21;;;;;;;8.00;7.20;;;16.30;97.20;;;;;;6037980;29;20945;-61
2021/09/06 02:39:24;;;;;;;11.23;8.00;;;16.20;97.30;;;;;;6038064;29;20486;-60
2021/09/06 02:42:29;;;;;;;8.00;7.20;;;16.20;97.50;;;;;;6037504;29;20491;-60
2021/09/06 02:45:32;;;;;;;9.60;8.63;;;16.10;97.40;;;;;;6038012;29;20483;-61
2021/09/06 02:48:35;;;;;;;8.93;7.87;;;16.10;97.80;;;;;;6033588;29;20482;-60
2021/09/06 02:51:39;;;;;;;8.50;7.80;;;16.10;98.00;;;;;;6037681;29;20483;-61
2021/09/06 02:54:42;;;;;;;8.07;7.27;;;16.00;98.10;;;;;;6037403;29;20482;-60
2021/09/06 02:57:47;;;;;;;9.00;8.10;;;15.90;98.20;;;;;;6037453;29;20499;-61
2021/09/06 03:00:50;;;;;;;8.87;7.93;;;15.90;98.40;;;;;;6037817;29;20489;-60
2021/09/06 03:03:53;;;;;;;9.20;8.20;;;15.90;98.40;;;;;;6037449;29;20498;-61
2021/09/06 03:06:56;;;;;;;9.17;8.30;;;15.90;98.40;;;;;;6037353;29;20482;-61
2021/09/06 03:09:59;;;;;;;10.33;8.17;;;15.90;98.50;;;;;;6037047;29;20866;-61
2021/09/06 03:13:04;;;;;;;10.27;8.20;;;15.90;98.50;;;;;;6036767;29;20514;-60
2021/09/06 03:16:08;;;;;;;11.60;8.30;;;15.80;98.50;;;;;;6037031;29;20486;-61
2021/09/06 03:19:11;;;;;;;9.37;8.57;;;15.70;98.80;;;;;;6037091;29;20471;-61
2021/09/06 03:22:16;;;;;;;7.57;6.87;;;15.80;99.00;;;;;;6036829;29;20475;-60
2021/09/06 03:25:19;;;;;;;8.17;7.37;;;15.80;99.00;;;;;;6036763;29;20474;-60
2021/09/06 03:28:24;;;;;;;8.37;7.57;;;15.70;99.00;;;;;;6036914;29;20483;-60
2021/09/06 03:31:27;;;;;;;8.33;7.53;;;15.70;99.20;;;;;;6036762;29;20483;-61
2021/09/06 03:34:30;;;;;;;8.93;8.00;;;15.70;99.20;;;;;;6036286;29;20487;-59
2021/09/06 03:37:33;;;;;;;9.23;7.40;;;15.70;99.20;;;;;;6036576;29;20928;-60
2021/09/06 03:40:37;;;;;;;8.73;7.93;;;15.60;99.30;;;;;;6037006;29;20542;-61
2021/09/06 03:43:41;;;;;;;11.17;8.23;;;15.70;99.40;;;;;;6036697;29;20467;-60
2021/09/06 03:46:45;;;;;;;8.50;7.80;;;15.50;99.60;;;;;;6036834;29;20528;-60
2021/09/06 03:49:48;;;;;;;8.30;7.50;;;15.60;99.80;;;;;;6036679;29;20524;-60
2021/09/06 03:52:51;;;;;;;9.07;7.67;;;15.60;99.80;;;;;;6026990;29;20478;-60
2021/09/06 03:55:54;;;;;;;12.77;9.30;;;15.50;99.90;;;;;;6036075;29;20510;-60
2021/09/06 03:58:59;;;;;;;13.00;10.17;;;15.50;99.90;;;;;;6036228;29;20984;-60
2021/09/06 04:02:02;;;;;;;13.57;10.90;;;15.60;99.90;;;;;;6035910;29;21000;-60
2021/09/06 04:05:06;;;;;;;11.00;9.40;;;15.60;99.90;;;;;;6036317;29;20490;-61
2021/09/06 04:08:10;;;;;;;10.87;9.53;;;15.50;99.90;;;;;;6036124;29;20570;-60
2021/09/06 04:11:14;;;;;;;11.37;9.63;;;15.50;99.90;;;;;;6035873;29;20479;-60
2021/09/06 04:14:21;;;;;;;10.77;9.30;;;15.50;99.90;;;;;;6035433;29;20491;-60
2021/09/06 04:17:24;;;;;;;11.50;9.73;;;15.50;99.90;;;;;;6035840;29;20545;-61
2021/09/06 04:20:27;;;;;;;10.00;9.00;;;15.40;99.90;;;;;;6035962;29;20490;-61
2021/09/06 04:23:30;;;;;;;9.17;8.27;;;15.40;99.90;;;;;;6035425;29;20854;-60
2021/09/06 04:26:33;;;;;;;9.93;8.93;;;15.40;99.90;;;;;;6036000;29;20491;-60
2021/09/06 04:29:38;;;;;;;11.10;9.90;;;15.40;99.90;;;;;;6035844;29;20544;-60
2021/09/06 04:32:41;;;;;;;11.80;9.10;;;15.40;99.90;;;;;;6035644;29;21037;-61
2021/09/06 04:35:44;;;;;;;9.77;8.77;;;15.30;99.90;;;;;;6035820;29;20471;-61
2021/09/06 04:38:47;;;;;;;10.20;9.20;;;15.40;99.90;;;;;;6035647;29;20482;-61
2021/09/06 04:41:51;;;;;;;10.53;9.43;;;15.40;99.90;;;;;;6035598;29;20483;-61
2021/09/06 04:44:55;;;;;;;10.57;9.57;;;15.30;99.90;;;;;;6035209;29;20868;-61
2021/09/06 04:47:58;;;;;;;9.57;8.67;;;15.40;99.90;;;;;;6035382;29;20483;-61
2021/09/06 04:51:01;;;;;;;9.53;8.50;;;15.40;99.90;;;;;;6035297;29;21005;-61
2021/09/06 04:54:05;;;;;;;10.57;8.60;;;15.50;99.90;;;;;;6034777;29;20828;-61
2021/09/06 04:57:08;;;;;;;10.50;9.40;;;15.50;99.90;;;;;;6031179;29;21045;-61
2021/09/06 05:00:13;;;;;;;10.53;9.43;;;15.50;99.90;;;;;;6035233;29;20475;-61
2021/09/06 05:03:16;;;;;;;11.77;9.80;;;15.50;99.90;;;;;;6035355;29;20490;-61
2021/09/06 05:06:19;;;;;;;10.90;9.80;;;15.50;99.90;;;;;;6039591;29;20942;-61
2021/09/06 05:09:23;;;;;;;10.70;9.27;;;15.60;99.90;;;;;;6039487;29;21020;-61
2021/09/06 05:12:26;;;;;;;9.87;8.83;;;15.70;99.90;;;;;;6039411;29;20498;-61
2021/09/06 05:15:31;;;;;;;11.17;9.93;;;15.70;99.90;;;;;;6039470;29;20976;-61
2021/09/06 05:18:34;;;;;;;10.47;9.37;;;15.80;99.90;;;;;;6039779;29;20503;-61
2021/09/06 05:21:37;;;;;;;12.83;9.60;;;15.90;99.90;;;;;;6039392;29;20478;-61
2021/09/06 05:24:40;;;;;;;10.20;9.20;;;15.90;99.90;;;;;;6039396;29;20497;-60
2021/09/06 05:27:43;;;;;;;13.73;10.47;;;16.00;99.90;;;;;;6039273;29;20489;-61
2021/09/06 05:30:48;;;;;;;13.67;10.23;;;16.10;99.90;;;;;;6039368;29;20490;-61
2021/09/06 05:33:51;;;;;;;10.60;9.23;;;16.10;99.90;;;;;;6039018;29;20791;-61
2021/09/06 05:36:54;;;;;;;13.20;10.13;;;16.10;99.90;;;;;;6039124;29;20494;-61
2021/09/06 05:39:57;;;;;;;11.43;9.67;;;16.10;99.80;;;;;;6038934;29;20825;-61
2021/09/06 05:43:00;;;;;;;14.93;10.60;;;16.20;99.70;;;;;;6038903;29;20490;-61
2021/09/06 05:46:05;;;;;;;13.50;11.13;;;16.30;99.70;;;;;;6039662;29;20483;-61
2021/09/06 05:49:08;;;;;;;12.10;10.83;;;16.40;99.80;;;;;;6038756;29;20475;-61
2021/09/06 05:52:12;;;;;;;10.03;9.13;;;16.40;99.80;;;;;;6038968;29;20487;-60
2021/09/06 05:55:15;;;;;;;11.40;10.30;;;16.40;99.80;;;;;;6038533;29;20883;-60
2021/09/06 05:58:18;;;;;;;12.30;9.93;;;16.50;99.70;;;;;;6038624;29;20475;-60
2021/09/06 06:01:23;;;;;;;15.10;9.60;;;16.60;99.80;;;;;;6039857;29;20818;-62
2021/09/06 06:04:26;;;;;;;10.90;9.80;;;16.70;99.70;;;;;;6061415;29;20817;-61
2021/09/06 06:07:30;;;;;;;12.53;10.73;;;16.80;99.50;;;;;;6061460;29;20482;-61
2021/09/06 06:10:33;;;;;;;12.10;10.83;;;16.90;99.40;;;;;;6061031;29;20936;-60
2021/09/06 06:13:36;;;;;;;12.40;10.23;;;17.10;99.20;;;;;;6061072;29;20545;-60
2021/09/06 06:16:40;;;;;;;10.40;9.50;;;17.30;98.80;;;;;;6060882;29;20501;-60
2021/09/06 06:19:43;;;;;;;12.23;10.90;;;17.50;98.40;;;;;;6061690;29;20459;-61
2021/09/06 06:22:47;;;;;;;13.90;9.70;;;17.80;97.90;;;;;;6061105;29;20786;-61
2021/09/06 06:25:50;;;;;;;9.63;8.57;;;18.20;98.10;;;;;;6052716;29;20507;-61
2021/09/06 06:28:53;;;;;;;9.07;8.23;;;19.60;96.20;;;;;;6037947;29;20476;-61
2021/09/06 06:31:58;;;;;;;11.33;8.80;;;21.20;93.60;;;;;;6038475;29;20237;-61
2021/09/06 06:35:01;;;;;;;10.83;9.10;;;22.60;90.20;;;;;;6037856;29;20254;-61
2021/09/06 06:38:05;;;;;;;9.47;8.47;;;23.90;81.40;;;;;;6037879;29;20571;-61
2021/09/06 06:41:08;;;;;;;9.60;8.60;;;25.00;76.20;;;;;;6037676;29;20243;-61
2021/09/06 06:44:11;;;;;;;9.90;8.90;;;25.90;70.80;;;;;;6038023;29;20298;-61
2021/09/06 06:47:16;;;;;;;10.97;8.60;;;26.80;65.80;;;;;;6037699;29;20282;-61
2021/09/06 06:50:20;;;;;;;10.03;8.50;;;27.60;59.60;;;;;;6037740;29;20240;-61
2021/09/06 06:53:23;;;;;;;8.60;7.90;;;28.30;56.70;;;;;;6037423;29;20257;-61
2021/09/06 06:56:26;;;;;;;8.67;7.97;;;29.20;52.90;;;;;;6037726;29;20246;-62
2021/09/06 06:59:30;;;;;;;8.03;7.27;;;30.10;51.10;;;;;;6037547;29;20249;-61
2021/09/06 07:02:34;;;;;;;8.50;7.70;;;31.00;48.60;;;;;;6037592;29;20249;-61
2021/09/06 07:05:40;;;;;;;9.43;8.63;;;31.70;45.60;;;;;;6028593;29;20317;-61
2021/09/06 07:08:43;;;;;;;7.85;7.05;;;32.00;42.90;;;;;;6037095;29;20260;-61
2021/09/06 07:11:47;;;;;;;10.27;9.32;;;32.20;41.60;;;;;;6037292;29;20260;-63
2021/09/06 07:14:50;;;;;;;8.25;7.55;;;32.80;41.20;;;;;;6036606;29;20244;-62
2021/09/06 07:17:54;;;;;;;7.50;6.82;;;33.50;40.20;;;;;;6037253;29;20249;-63
2021/09/06 07:20:57;;;;;;;8.48;7.72;;;34.50;37.60;;;;;;6037208;29;20241;-62
2021/09/06 07:24:00;;;;;;;8.85;8.05;;;34.30;37.10;;;;;;6036796;29;20252;-63
2021/09/06 07:27:04;;;;;;;8.63;7.78;;;34.70;36.60;;;;;;6036605;29;20244;-62
2021/09/06 07:30:08;;;;;;;8.48;7.38;;;36.00;35.20;;;;;;6036487;29;20241;-63
2021/09/06 07:33:13;;;;;;;9.38;8.30;;;36.60;33.30;;;;;;6036900;29;20256;-62
2021/09/06 07:36:16;;;;;;;8.70;8.10;;;37.30;32.30;;;;;;6036515;29;20696;-63
2021/09/06 07:39:20;;;;;;;9.02;7.30;;;37.40;31.30;;;;;;6036443;29;20234;-61
2021/09/06 07:42:23;;;;;;;8.02;7.25;;;37.70;31.30;;;;;;6042334;29;20237;-63
2021/09/06 07:45:27;;;;;;;8.15;7.45;;;38.20;30.60;;;;;;6059099;29;20566;-62
2021/09/06 07:48:31;;;;;;;8.15;7.43;;;38.90;30.00;;;;;;6059161;29;20233;-61
2021/09/06 07:51:35;;;;;;;7.53;6.93;;;38.90;29.40;;;;;;6059331;29;20232;-60
2021/09/06 07:54:38;;;;;;;7.68;7.00;;;39.60;29.00;;;;;;6059053;29;20592;-63
2021/09/06 07:57:41;;;;;;;8.85;8.15;;;40.70;28.10;;;;;;6059231;29;20251;-59
2021/09/06 08:00:52;;;;;;;7.80;7.20;;;41.10;27.20;;;;;;6326545;27;20545;-59
2021/09/06 08:03:56;;;;;;;13.95;12.75;;;41.90;26.40;;;;;;6321050;28;20334;-59
2021/09/06 08:07:00;;;;;;;8.43;7.82;;;42.70;25.70;;;;;;6300312;28;20290;-59
2021/09/06 08:10:04;;;;;;;8.63;7.88;;;43.30;25.20;;;;;;6286413;28;20234;-59
2021/09/06 08:13:07;;;;;;;8.10;7.47;;;43.90;24.90;;;;;;6295297;28;20240;-59
2021/09/06 08:16:12;;;;;;;9.30;8.60;;;44.00;24.90;;;;;;6294706;28;20561;-59
2021/09/06 08:19:15;;;;;;;8.48;7.78;;;44.10;24.10;;;;;;6270217;28;20248;-60
2021/09/06 08:22:18;;;;;;;8.07;7.38;;;44.60;24.00;;;;;;6270221;28;20231;-59
2021/09/06 08:25:21;;;;;;;7.68;7.07;;;45.40;23.40;;;;;;6270232;28;20235;-58
2021/09/06 08:28:25;;;;;;;7.97;7.43;;;46.10;23.00;;;;;;6270202;28;20568;-59
2021/09/06 08:31:30;;;;;;;7.97;7.45;;;46.20;22.50;;;;;;6270197;28;20228;-59
2021/09/06 08:34:33;;;;;;;7.38;6.88;;;46.60;22.30;;;;;;6270064;28;20553;-60
2021/09/06 08:37:37;;;;;;;7.43;6.88;;;46.50;22.20;;;;;;6269919;28;20217;-60
2021/09/06 08:40:40;;;;;;;7.80;7.30;;;46.90;22.00;;;;;;6269527;28;20226;-61
2021/09/06 08:43:43;;;;;;;7.75;7.05;;;47.80;21.70;;;;;;6269035;28;20219;-61
2021/09/06 08:46:48;;;;;;;8.23;7.60;;;48.40;21.30;;;;;;6269810;28;20215;-60
2021/09/06 08:49:51;;;;;;;8.10;7.40;;;48.90;21.20;;;;;;6269748;28;20287;-60
2021/09/06 08:52:55;;;;;;;8.57;7.88;;;49.50;20.30;;;;;;6269449;28;20559;-59
2021/09/06 08:55:58;;;;;;;7.93;7.25;;;48.60;20.60;;;;;;6269878;28;20369;-61
2021/09/06 08:59:20;;;;;;;8.40;7.80;;;47.90;20.90;;;;;;6269477;28;20243;-59
2021/09/06 09:02:25;;;;;;;8.73;8.02;;;46.50;21.50;;;;;;6269355;28;20242;-60
2021/09/06 09:05:29;;;;;;;7.75;7.15;;;47.10;21.40;;;;;;6269396;28;20231;-60
2021/09/06 09:08:33;;;;;;;7.70;7.10;;;48.20;20.90;;;;;;6268033;28;20224;-60
2021/09/06 09:11:37;;;;;;;7.07;6.47;;;48.30;20.60;;;;;;6247155;28;20231;-60
2021/09/06 09:14:42;;;;;;;8.00;7.40;;;48.10;20.60;;;;;;6251544;28;20570;-60
2021/09/06 09:17:53;;;;;;;7.07;6.57;;;49.30;20.20;;;;;;6251875;28;20241;-60
2021/09/06 09:21:01;;;;;;;8.85;8.15;;;50.40;19.60;;;;;;6252268;28;20250;-61
2021/09/06 09:24:04;;;;;;;7.93;7.25;;;50.90;19.30;;;;;;6252657;28;20232;-61
2021/09/06 09:27:11;;;;;;;6.93;6.47;;;51.40;19.10;;;;;;6252409;28;20740;-61
2021/09/06 09:30:22;;;;;;;8.13;7.55;;;51.30;18.90;;;;;;6252003;28;20225;-60
2021/09/06 09:33:27;;;;;;;8.40;7.80;;;51.50;18.60;;;;;;6252358;28;20235;-61
2021/09/06 09:36:32;;;;;;;7.80;7.30;;;52.10;18.30;;;;;;6252377;28;20239;-60
2021/09/06 09:39:35;;;;;;;8.23;7.38;;;52.70;18.20;;;;;;6252149;28;20239;-61
2021/09/06 09:42:49;;;;;;;8.43;7.82;;;53.20;17.80;;;;;;6252045;28;20243;-61
2021/09/06 09:46:02;;;;;;;9.20;8.60;;;52.70;17.90;;;;;;6251716;28;20546;-60
2021/09/06 09:49:14;;;;;;;10.02;9.07;;;52.20;18.10;;;;;;6251844;28;20222;-61
2021/09/06 09:52:19;;;;;;;8.23;7.63;;;50.50;18.70;;;;;;6251625;28;20224;-60
2021/09/06 09:55:22;;;;;;;8.20;7.70;;;48.70;19.70;;;;;;6251689;28;20242;-60
2021/09/06 09:58:26;;;;;;;14.15;12.77;;;47.10;20.60;;;;;;6251589;28;20236;-60
2021/09/06 10:01:33;;;;;;;9.13;8.32;;;43.70;22.60;;;;;;6251638;28;20245;-60
2021/09/06 10:04:46;;;;;;;10.75;9.75;;;42.00;23.80;;;;;;6251351;28;20661;-60
2021/09/06 10:07:50;;;;;;;8.63;8.02;;;40.70;25.00;;;;;;6251753;28;20192;-61
2021/09/06 10:10:53;;;;;;;9.50;8.80;;;39.60;26.00;;;;;;6251572;28;20200;-60
2021/09/06 10:13:56;;;;;;;9.05;8.23;;;38.80;26.70;;;;;;6246057;28;20231;-60
2021/09/06 10:17:03;;;;;;;9.20;8.40;;;37.50;27.90;;;;;;6251055;28;20227;-60
2021/09/06 10:20:20;;;;;;;9.05;8.35;;;36.50;29.00;;;;;;6250607;28;20246;-60
2021/09/06 10:23:25;;;;;;;9.60;8.80;;;35.50;30.00;;;;;;6248281;28;20235;-60
2021/09/06 10:26:34;;;;;;;10.20;9.30;;;34.50;31.40;;;;;;6251167;28;20239;-60
2021/09/06 10:29:37;;;;;;;8.88;8.15;;;33.40;33.40;;;;;;6250763;28;20235;-60
2021/09/06 10:32:41;;;;;;;13.27;9.48;;;32.80;34.40;;;;;;6250350;28;20246;-59
2021/09/06 10:35:46;;;;;;;9.40;8.48;;;32.20;35.60;;;;;;6249999;28;20223;-60
2021/09/06 10:38:51;;;;;;;10.45;9.52;;;31.70;36.40;;;;;;6250036;28;20234;-60
2021/09/06 10:41:54;;;;;;;10.63;9.20;;;30.90;37.50;;;;;;6249545;28;20568;-59
2021/09/06 10:44:59;;;;;;;8.73;7.97;;;30.50;38.50;;;;;;6250612;28;20216;-59
2021/09/06 10:48:05;;;;;;;10.85;9.32;;;30.30;38.60;;;;;;6250120;28;20223;-60
2021/09/06 10:51:10;;;;;;;9.32;8.43;;;30.20;38.80;;;;;;6249745;28;20239;-59
2021/09/06 10:54:14;;;;;;;9.07;8.27;;;30.00;39.20;;;;;;6249502;28;20235;-59
2021/09/06 10:57:17;;;;;;;8.95;8.15;;;29.90;39.70;;;;;;6246903;28;20688;-58
2021/09/06 11:00:22;;;;;;;9.27;8.52;;;29.80;40.50;;;;;;6249978;28;20242;-59
2021/09/06 11:03:30;;;;;;;9.40;8.73;;;29.70;40.20;;;;;;6250300;28;20250;-59
2021/09/06 11:06:35;;;;;;;9.43;8.63;;;29.40;41.10;;;;;;6250529;28;20231;-60
2021/09/06 11:09:39;;;;;;;8.70;8.10;;;29.00;41.30;;;;;;6250198;28;20235;-58
2021/09/06 11:12:53;;;;;;;9.40;8.60;;;29.00;41.80;;;;;;6249890;28;20326;-60
2021/09/06 11:15:56;;;;;;;9.53;8.67;;;29.00;41.80;;;;;;6250258;28;20234;-61
2021/09/06 11:19:00;;;;;;;8.93;8.23;;;28.90;42.20;;;;;;6249855;28;20238;-59
2021/09/06 11:22:06;;;;;;;10.43;9.53;;;29.20;42.00;;;;;;6249195;28;20227;-59
2021/09/06 11:25:10;;;;;;;10.20;9.17;;;29.10;42.40;;;;;;6248965;28;20709;-60
2021/09/06 11:28:15;;;;;;;9.10;8.30;;;29.30;42.20;;;;;;6248986;28;20223;-60
2021/09/06 11:31:19;;;;;;;10.10;9.20;;;29.20;42.00;;;;;;6249109;28;20219;-60
2021/09/06 11:34:24;;;;;;;8.90;8.10;;;29.00;41.70;;;;;;6248745;28;20535;-61
2021/09/06 11:37:29;;;;;;;9.27;8.43;;;28.90;42.30;;;;;;6249096;28;20235;-58
2021/09/06 11:40:33;;;;;;;9.87;8.97;;;29.00;42.50;;;;;;6248795;28;20440;-59
2021/09/06 11:43:37;;;;;;;9.70;8.80;;;29.00;42.50;;;;;;6249013;28;20231;-60
2021/09/06 11:46:41;;;;;;;10.43;9.33;;;28.50;43.00;;;;;;6249001;28;20211;-60
2021/09/06 11:49:52;;;;;;;8.97;8.27;;;28.30;44.10;;;;;;6247687;28;20208;-59
2021/09/06 11:53:01;;;;;;;11.07;8.47;;;28.50;44.00;;;;;;6248240;28;20262;-59
2021/09/06 11:56:14;;;;;;;9.20;8.30;;;28.30;43.50;;;;;;6249205;28;20232;-59
2021/09/06 11:59:29;;;;;;;9.20;8.40;;;28.30;44.00;;;;;;6248644;28;20246;-59
2021/09/06 12:02:33;;;;;;;8.97;8.17;;;28.40;44.00;;;;;;6248485;28;20236;-59
2021/09/06 12:05:41;;;;;;;8.77;7.97;;;28.50;44.00;;;;;;6248390;28;20223;-59
2021/09/06 12:08:53;;;;;;;8.80;7.90;;;28.70;44.30;;;;;;6248236;28;20250;-59
2021/09/06 12:12:21;;;;;;;9.30;8.50;;;28.70;43.70;;;;;;6248285;28;20271;-59
2021/09/06 12:15:24;;;;;;;8.70;7.90;;;28.80;43.20;;;;;;6248357;28;20566;-58
2021/09/06 12:18:34;;;;;;;9.97;8.93;;;28.20;44.00;;;;;;6248379;28;20318;-59
2021/09/06 12:21:44;;;;;;;9.47;8.50;;;28.20;44.60;;;;;;6248258;28;20232;-58
2021/09/06 12:24:53;;;;;;;9.10;7.57;;;28.40;44.30;;;;;;6239260;28;20250;-58
2021/09/06 12:28:07;;;;;;;9.10;8.10;;;28.50;42.60;;;;;;6248243;28;20236;-59
2021/09/06 12:31:10;;;;;;;8.90;8.00;;;28.60;42.60;;;;;;6248174;28;20223;-58
2021/09/06 12:34:14;;;;;;;8.70;7.90;;;28.50;42.20;;;;;;6247712;28;20235;-60
2021/09/06 12:37:17;;;;;;;9.40;8.57;;;28.40;42.80;;;;;;6248101;28;20227;-58
2021/09/06 12:40:22;;;;;;;9.13;8.20;;;28.20;43.10;;;;;;6247878;28;20244;-58
2021/09/06 12:43:25;;;;;;;9.07;8.30;;;27.80;44.20;;;;;;6244587;28;20240;-59
2021/09/06 12:46:29;;;;;;;10.20;7.60;;;27.80;43.70;;;;;;6247844;28;20238;-58
2021/09/06 12:49:33;;;;;;;7.97;7.27;;;27.70;43.40;;;;;;6252749;28;20305;-59
2021/09/06 12:52:37;;;;;;;8.83;7.83;;;27.60;44.30;;;;;;6252591;28;20234;-58
2021/09/06 12:55:43;;;;;;;9.00;8.10;;;27.70;43.40;;;;;;6252784;28;20281;-58
2021/09/06 12:58:49;;;;;;;8.90;8.10;;;27.50;43.60;;;;;;6252463;28;20289;-58
2021/09/06 13:01:52;;;;;;;10.23;8.10;;;27.50;44.00;;;;;;6252332;28;20219;-59
2021/09/06 13:04:56;;;;;;;9.00;8.20;;;27.50;45.20;;;;;;6252204;28;20664;-58
2021/09/06 13:08:00;;;;;;;9.63;8.77;;;27.50;45.60;;;;;;6252459;28;20238;-58
2021/09/06 13:11:05;;;;;;;9.00;8.13;;;27.40;46.00;;;;;;6252176;28;20285;-58
2021/09/06 13:14:08;;;;;;;8.23;7.50;;;27.70;45.70;;;;;;6251804;28;20240;-58
2021/09/06 13:17:11;;;;;;;8.80;8.10;;;27.70;44.50;;;;;;6252388;28;20228;-58
2021/09/06 13:20:15;;;;;;;8.00;7.40;;;27.60;44.30;;;;;;6251862;28;20246;-58
2021/09/06 13:23:18;;;;;;;8.47;7.70;;;27.70;42.00;;;;;;6251757;28;20347;-58
2021/09/06 13:26:22;;;;;;;8.77;7.90;;;28.00;43.20;;;;;;6247693;28;20250;-58
2021/09/06 13:29:25;;;;;;;8.93;8.03;;;27.80;42.40;;;;;;6252329;28;20223;-59
2021/09/06 13:32:29;;;;;;;8.27;7.53;;;27.40;42.70;;;;;;6252208;28;20231;-58
2021/09/06 13:35:32;;;;;;;8.80;8.00;;;27.50;43.50;;;;;;6252669;28;20223;-58
2021/09/06 13:38:36;;;;;;;8.53;7.70;;;27.40;43.10;;;;;;6252115;28;20231;-58
2021/09/06 13:41:41;;;;;;;8.33;7.50;;;27.40;42.60;;;;;;6251948;28;20250;-59
2021/09/06 13:44:44;;;;;;;8.00;7.23;;;27.40;43.00;;;;;;6245589;28;20690;-58
2021/09/06 13:47:47;;;;;;;7.97;7.17;;;27.10;42.60;;;;;;6251989;28;20241;-58
2021/09/06 13:50:50;;;;;;;7.90;7.07;;;27.20;42.90;;;;;;6251746;28;20223;-61
2021/09/06 13:53:53;;;;;;;8.20;7.40;;;27.00;43.20;;;;;;6194818;28;20690;-58
2021/09/06 13:56:58;;;;;;;8.43;7.73;;;27.10;43.50;;;;;;6295572;28;20222;-59
2021/09/06 14:00:01;;;;;;;7.97;7.37;;;27.00;44.10;;;;;;6288071;28;20234;-58
2021/09/06 14:03:05;;;;;;;7.77;7.10;;;26.90;44.30;;;;;;6300512;28;20663;-59
2021/09/06 14:06:09;;;;;;;8.77;7.97;;;26.60;44.50;;;;;;6300803;28;20234;-61
2021/09/06 14:09:12;;;;;;;7.77;7.07;;;26.30;44.90;;;;;;6300964;28;20702;-60
2021/09/06 14:12:17;;;;;;;8.53;7.73;;;26.20;44.80;;;;;;6300763;28;20232;-58
2021/09/06 14:15:20;;;;;;;8.63;7.83;;;26.00;46.00;;;;;;6300826;28;20579;-59
2021/09/06 14:18:23;;;;;;;7.97;7.27;;;26.00;46.40;;;;;;6300299;28;20233;-59
2021/09/06 14:21:26;;;;;;;8.40;7.60;;;25.80;46.50;;;;;;6300688;28;20234;-60
2021/09/06 14:24:31;;;;;;;8.27;7.57;;;25.90;46.50;;;;;;6299641;28;20233;-60
2021/09/06 14:27:36;;;;;;;7.13;6.50;;;26.00;46.30;;;;;;6298743;28;20226;-59
2021/09/06 14:30:39;;;;;;;7.97;7.23;;;26.00;46.20;;;;;;6299672;28;20673;-60
2021/09/06 14:33:44;;;;;;;8.50;7.80;;;26.10;45.50;;;;;;6300127;28;20230;-60
2021/09/06 14:36:47;;;;;;;7.37;6.77;;;25.70;45.40;;;;;;6299852;28;20230;-60
2021/09/06 14:39:50;;;;;;;8.50;7.57;;;25.80;46.30;;;;;;6299892;28;20705;-60
2021/09/06 14:42:55;;;;;;;7.53;6.93;;;25.70;46.50;;;;;;6299637;28;20576;-59
2021/09/06 14:45:58;;;;;;;8.63;7.93;;;25.60;45.80;;;;;;6299508;28;20229;-60
2021/09/06 14:49:01;;;;;;;8.90;7.83;;;25.70;46.30;;;;;;6297585;28;20309;-61
2021/09/06 14:52:05;;;;;;;8.20;7.50;;;25.70;45.40;;;;;;6297680;28;20234;-60
2021/09/06 14:55:09;;;;;;;9.03;8.23;;;25.70;46.10;;;;;;6297697;28;20237;-60
2021/09/06 14:58:15;;;;;;;8.70;7.90;;;25.80;46.50;;;;;;6297657;28;20246;-61
2021/09/06 15:01:18;;;;;;;7.53;6.80;;;25.80;46.90;;;;;;6297714;28;20226;-61
2021/09/06 15:04:24;;;;;;;7.67;6.97;;;25.80;46.30;;;;;;6299090;28;20245;-60
2021/09/06 15:07:29;;;;;;;7.80;7.10;;;25.80;46.70;;;;;;6297812;28;20225;-60
2021/09/06 15:10:32;;;;;;;7.07;6.13;;;25.80;46.50;;;;;;6299059;28;20215;-59
2021/09/06 15:13:37;;;;;;;8.23;7.27;;;25.70;46.10;;;;;;6297090;28;20313;-60
2021/09/06 15:16:41;;;;;;;7.20;6.40;;;25.70;45.20;;;;;;6299348;28;20222;-60
2021/09/06 15:19:45;;;;;;;8.53;7.63;;;25.80;44.00;;;;;;6299416;28;20202;-59
2021/09/06 15:22:48;;;;;;;7.17;6.57;;;25.70;45.30;;;;;;6299313;28;20227;-59
2021/09/06 15:25:51;;;;;;;8.20;7.50;;;25.80;46.90;;;;;;6272290;28;20535;-60
2021/09/06 15:28:56;;;;;;;8.23;7.10;;;25.80;47.60;;;;;;6249479;28;20223;-60
2021/09/06 15:31:59;;;;;;;8.30;7.50;;;25.70;47.20;;;;;;6254209;28;20681;-59
2021/09/06 15:35:03;;;;;;;7.80;7.17;;;25.80;46.80;;;;;;6274090;28;20562;-61
2021/09/06 15:38:07;;;;;;;8.47;7.77;;;25.90;48.40;;;;;;6273832;28;20732;-63
2021/09/06 15:41:13;;;;;;;8.50;7.60;;;25.90;48.80;;;;;;6278910;28;20240;-59
2021/09/06 15:44:19;;;;;;;9.53;7.40;;;25.70;48.90;;;;;;6298837;28;20226;-59
2021/09/06 15:47:23;;;;;;;7.57;6.87;;;25.30;49.30;;;;;;6298791;28;20241;-59
2021/09/06 15:50:30;;;;;;;7.23;6.63;;;25.30;48.90;;;;;;6298568;28;20701;-60
2021/09/06 15:53:33;;;;;;;6.80;6.20;;;25.30;48.60;;;;;;6290733;28;20571;-60